Weather at Darwin International Airport

Public forecast

Using degrees Celsius for public forecast. Weather courtesy of forecast.io.

Current aviation weather report (METAR) for Darwin International Airport

Retrieved 2020/11/28 10:30 UTC (5 minutes ago):

YPDN 281030Z 18010KT CAVOK 25/22 Q1008

Aviation forecast (TAF) for Darwin International Airport

Retrieved 2020/11/28 09:36 UTC (59 minutes ago):

TAF YPDN 280815Z 2809/2912 32006KT 9999 SCT020 FM290300 30010KT 9999 SCT025 PROB30 TEMPO 2904/2910 VRB25G45KT 1000 TSRA BKN010 SCT030CB